Time;durP1;ratioP1;P1;durP2;ratioP2;P2;SDS_P1;SDS_P2;PMS_P1;PMS_P2;Temp;Humidity;BMP_temperature;BMP_pressure;BME280_temperature;BME280_humidity;BME280_pressure;Samples;Min_cycle;Max_cycle;Signal;HPM_P1;HPM_P2
2024/02/11 00:02:39;;;;;;;82.85;21.98;;;;;;;;;;9908388;28;20430;-73
2024/02/11 00:07:31;;;;;;;107.97;20.70;;;;;;;;;;9907703;28;20493;-72
2024/02/11 00:12:23;;;;;;;110.97;19.40;;;;;;;;;;9905927;28;20074;-73
2024/02/11 00:17:15;;;;;;;81.03;16.63;;;;;;;;;;9906269;28;20082;-72
2024/02/11 00:22:08;;;;;;;101.05;20.77;;;;;;;;;;9906986;28;20505;-72
2024/02/11 00:27:01;;;;;;;88.20;19.67;;;;;;;;;;9906802;28;20094;-72
2024/02/11 00:31:56;;;;;;;91.55;19.60;;;;;;;;;;9906117;28;20047;-72
2024/02/11 00:36:49;;;;;;;101.03;19.65;;;;;;;;;;9907191;28;20087;-73
2024/02/11 00:41:41;;;;;;;107.22;17.98;;;;;;;;;;9905621;28;20550;-72
2024/02/11 00:46:34;;;;;;;123.28;18.00;;;;;;;;;;9906278;28;20126;-72
2024/02/11 00:51:27;;;;;;;156.15;17.88;;;;;;;;;;9905698;28;20081;-72
2024/02/11 00:56:21;;;;;;;74.53;16.35;;;;;;;;;;9905397;28;20043;-72
2024/02/11 01:01:13;;;;;;;62.25;16.50;;;;;;;;;;9905808;28;20055;-72
2024/02/11 01:06:05;;;;;;;118.20;18.35;;;;;;;;;;9904994;28;20044;-72
2024/02/11 01:10:57;;;;;;;72.05;15.77;;;;;;;;;;9906282;28;20098;-72
2024/02/11 01:15:49;;;;;;;60.22;18.13;;;;;;;;;;9904893;28;20043;-72
2024/02/11 01:20:43;;;;;;;56.95;17.77;;;;;;;;;;9910508;28;20115;-72
2024/02/11 01:25:34;;;;;;;68.30;19.02;;;;;;;;;;9912938;28;20067;-72
2024/02/11 01:30:26;;;;;;;83.60;17.98;;;;;;;;;;9912508;28;20039;-72
2024/02/11 01:35:18;;;;;;;59.08;17.23;;;;;;;;;;9912737;28;20059;-72
2024/02/11 01:40:15;;;;;;;60.40;18.58;;;;;;;;;;9912080;28;20126;-73
2024/02/11 01:45:07;;;;;;;46.58;15.52;;;;;;;;;;9895713;28;20488;-73
2024/02/11 01:50:00;;;;;;;46.13;15.80;;;;;;;;;;9911495;28;20039;-72
2024/02/11 01:54:52;;;;;;;43.05;16.48;;;;;;;;;;9911666;28;20050;-72
2024/02/11 01:59:44;;;;;;;71.93;19.95;;;;;;;;;;9895246;28;20122;-72
2024/02/11 02:04:37;;;;;;;59.70;23.02;;;;;;;;;;9899513;28;20134;-72
2024/02/11 02:09:31;;;;;;;27.15;14.25;;;;;;;;;;9911398;28;20387;-73
2024/02/11 02:14:23;;;;;;;30.77;13.77;;;;;;;;;;9912134;28;20093;-73
2024/02/11 02:19:15;;;;;;;35.13;12.95;;;;;;;;;;9910932;28;20470;-73
2024/02/11 02:24:07;;;;;;;25.80;10.95;;;;;;;;;;9910578;28;20047;-73
2024/02/11 02:28:59;;;;;;;36.75;14.18;;;;;;;;;;9894420;28;20096;-73
2024/02/11 02:33:51;;;;;;;30.13;12.80;;;;;;;;;;9909629;28;20055;-72
2024/02/11 02:38:43;;;;;;;19.00;11.43;;;;;;;;;;9910289;28;20057;-72
2024/02/11 02:43:35;;;;;;;25.90;12.00;;;;;;;;;;9910048;28;20047;-72
2024/02/11 02:48:28;;;;;;;29.77;11.32;;;;;;;;;;9909270;28;20058;-72
2024/02/11 02:53:20;;;;;;;29.15;10.70;;;;;;;;;;9911531;28;20367;-73
2024/02/11 02:58:13;;;;;;;23.75;11.60;;;;;;;;;;9909568;28;20051;-72
2024/02/11 03:03:07;;;;;;;27.13;10.63;;;;;;;;;;9909459;28;20476;-73
2024/02/11 03:08:00;;;;;;;20.77;11.05;;;;;;;;;;9909448;28;20069;-73
2024/02/11 03:12:53;;;;;;;25.55;11.90;;;;;;;;;;9908995;28;21213;-73
2024/02/11 03:17:44;;;;;;;28.55;12.75;;;;;;;;;;9909611;28;20083;-73
2024/02/11 03:22:36;;;;;;;26.42;15.23;;;;;;;;;;9909311;28;20049;-73
2024/02/11 03:27:30;;;;;;;25.70;14.95;;;;;;;;;;9909161;28;20525;-73
2024/02/11 03:32:22;;;;;;;29.80;16.73;;;;;;;;;;9909303;28;20046;-72
2024/02/11 03:37:14;;;;;;;18.23;12.27;;;;;;;;;;9908021;28;20039;-72
2024/02/11 03:42:06;;;;;;;19.52;10.57;;;;;;;;;;9907929;28;20118;-72
2024/02/11 03:47:02;;;;;;;19.25;11.10;;;;;;;;;;9908277;28;20039;-72
2024/02/11 03:51:56;;;;;;;21.27;9.93;;;;;;;;;;9907203;28;20189;-73
2024/02/11 03:56:47;;;;;;;23.42;11.52;;;;;;;;;;9907086;28;20541;-72
2024/02/11 04:01:39;;;;;;;19.48;10.75;;;;;;;;;;9907692;28;20055;-73
2024/02/11 04:06:34;;;;;;;21.27;11.85;;;;;;;;;;9907200;28;20446;-73
2024/02/11 04:11:29;;;;;;;24.38;11.85;;;;;;;;;;9906617;28;20126;-72
2024/02/11 04:16:22;;;;;;;20.02;12.07;;;;;;;;;;9907844;28;20051;-73
2024/02/11 04:21:20;;;;;;;17.83;11.60;;;;;;;;;;9906749;28;20106;-72
2024/02/11 04:26:13;;;;;;;19.67;11.73;;;;;;;;;;9906472;28;20378;-72
2024/02/11 04:31:09;;;;;;;21.85;14.52;;;;;;;;;;9905924;28;20102;-73
2024/02/11 04:36:01;;;;;;;21.35;13.77;;;;;;;;;;9906822;28;20323;-73
2024/02/11 04:40:53;;;;;;;20.58;11.38;;;;;;;;;;9905643;28;20055;-72
2024/02/11 04:45:45;;;;;;;19.75;10.65;;;;;;;;;;9906354;28;20086;-72
2024/02/11 04:50:37;;;;;;;18.40;10.18;;;;;;;;;;9905892;28;20154;-73
2024/02/11 04:55:38;;;;;;;19.88;11.48;;;;;;;;;;9914695;28;20047;-73
2024/02/11 05:00:33;;;;;;;22.27;11.85;;;;;;;;;;9921717;28;20055;-72
2024/02/11 05:05:30;;;;;;;17.70;10.20;;;;;;;;;;9919606;28;20043;-73
2024/02/11 05:10:27;;;;;;;20.08;11.52;;;;;;;;;;9918979;28;20469;-72
2024/02/11 05:15:21;;;;;;;20.40;11.55;;;;;;;;;;9917622;28;20129;-73
2024/02/11 05:20:14;;;;;;;15.18;11.63;;;;;;;;;;9923477;28;20125;-72
2024/02/11 05:25:07;;;;;;;22.77;10.88;;;;;;;;;;9918346;28;20138;-72
2024/02/11 05:29:59;;;;;;;17.02;10.90;;;;;;;;;;9918446;28;20057;-72
2024/02/11 05:34:52;;;;;;;17.10;11.68;;;;;;;;;;9918236;28;20051;-74
2024/02/11 05:39:44;;;;;;;21.77;14.05;;;;;;;;;;9947124;28;20448;-73
2024/02/11 05:44:38;;;;;;;20.38;13.30;;;;;;;;;;9951471;28;20058;-73
2024/02/11 05:49:31;;;;;;;16.92;12.93;;;;;;;;;;9952792;28;20414;-72
2024/02/11 05:54:24;;;;;;;21.90;14.27;;;;;;;;;;9937255;28;20074;-73
2024/02/11 05:59:17;;;;;;;23.50;12.70;;;;;;;;;;9953714;28;20073;-72
2024/02/11 06:04:09;;;;;;;17.70;11.98;;;;;;;;;;9935062;28;20054;-73
2024/02/11 06:09:04;;;;;;;17.65;12.85;;;;;;;;;;9947338;28;20191;-72
2024/02/11 06:13:57;;;;;;;18.45;14.80;;;;;;;;;;9928416;28;20379;-72
2024/02/11 06:18:49;;;;;;;58.30;44.33;;;;;;;;;;9911044;28;20122;-74
2024/02/11 06:23:41;;;;;;;22.35;15.25;;;;;;;;;;9910517;28;20051;-72
2024/02/11 06:28:34;;;;;;;24.27;13.05;;;;;;;;;;9916192;28;20137;-72
2024/02/11 06:33:26;;;;;;;17.70;11.68;;;;;;;;;;9911293;28;20051;-73
2024/02/11 06:38:18;;;;;;;24.95;13.73;;;;;;;;;;9910601;28;20047;-73
2024/02/11 06:43:14;;;;;;;15.27;11.32;;;;;;;;;;9910412;28;20134;-73
2024/02/11 06:48:08;;;;;;;17.20;11.40;;;;;;;;;;9909529;28;20051;-72
2024/02/11 06:53:00;;;;;;;20.77;13.02;;;;;;;;;;9910185;28;20471;-73
2024/02/11 06:57:52;;;;;;;18.48;12.52;;;;;;;;;;9909516;28;20047;-73
2024/02/11 07:02:47;;;;;;;17.98;13.07;;;;;;;;;;9909307;28;20051;-73
2024/02/11 07:07:42;;;;;;;19.50;12.82;;;;;;;;;;9910366;28;20289;-72
2024/02/11 07:12:34;;;;;;;16.35;10.82;;;;;;;;;;9938628;28;20070;-73
2024/02/11 07:17:30;;;;;;;13.93;10.25;;;;;;;;;;9942171;28;20113;-73
2024/02/11 07:22:22;;;;;;;16.02;10.07;;;;;;;;;;9941925;28;20038;-73
2024/02/11 07:27:14;;;;;;;14.88;9.90;;;;;;;;;;9942911;28;20150;-73
2024/02/11 07:32:07;;;;;;;12.55;9.60;;;;;;;;;;9941662;28;20053;-73
2024/02/11 07:37:02;;;;;;;14.77;10.52;;;;;;;;;;9942217;28;20110;-73
2024/02/11 07:41:54;;;;;;;17.75;11.00;;;;;;;;;;9943619;28;20109;-73
2024/02/11 07:46:46;;;;;;;19.13;12.35;;;;;;;;;;9943955;28;20501;-73
2024/02/11 07:51:44;;;;;;;20.70;14.05;;;;;;;;;;9943846;28;20050;-73
2024/02/11 07:56:36;;;;;;;22.95;13.60;;;;;;;;;;9943736;28;20039;-73
2024/02/11 08:01:28;;;;;;;30.08;18.13;;;;;;;;;;9942545;28;20046;-72
2024/02/11 08:06:20;;;;;;;25.25;14.52;;;;;;;;;;9943870;28;20775;-72
2024/02/11 08:11:12;;;;;;;26.08;16.10;;;;;;;;;;9942708;28;20122;-73
2024/02/11 08:16:06;;;;;;;17.10;12.18;;;;;;;;;;9939086;28;20093;-73
2024/02/11 08:20:58;;;;;;;18.58;12.48;;;;;;;;;;9941904;28;20493;-73
2024/02/11 08:25:50;;;;;;;17.77;11.02;;;;;;;;;;9936250;28;20081;-72
2024/02/11 08:30:43;;;;;;;14.15;10.25;;;;;;;;;;9940548;28;20486;-73
2024/02/11 08:35:36;;;;;;;14.38;10.15;;;;;;;;;;9941497;28;20043;-73
2024/02/11 08:40:28;;;;;;;17.63;11.13;;;;;;;;;;9940659;28;20145;-72
2024/02/11 08:45:20;;;;;;;16.52;11.07;;;;;;;;;;9923756;28;20086;-73
2024/02/11 08:50:14;;;;;;;20.40;11.05;;;;;;;;;;9927838;28;20136;-73
2024/02/11 08:55:07;;;;;;;13.90;10.93;;;;;;;;;;9912397;28;20047;-72
2024/02/11 08:59:59;;;;;;;18.00;12.57;;;;;;;;;;9915706;28;20054;-73
2024/02/11 09:04:53;;;;;;;22.30;13.95;;;;;;;;;;9909328;28;20062;-73
2024/02/11 09:09:45;;;;;;;15.48;10.73;;;;;;;;;;9907520;28;20755;-73
2024/02/11 09:14:38;;;;;;;23.67;17.30;;;;;;;;;;9905135;28;20047;-74
2024/02/11 09:19:31;;;;;;;10.68;7.93;;;;;;;;;;9933073;28;20142;-73
2024/02/11 09:24:24;;;;;;;10.80;7.43;;;;;;;;;;9932720;28;20509;-73
2024/02/11 09:29:15;;;;;;;8.52;6.78;;;;;;;;;;9940271;28;20146;-73
2024/02/11 09:34:08;;;;;;;10.38;7.68;;;;;;;;;;9940174;28;20046;-73
2024/02/11 09:39:01;;;;;;;8.07;7.32;;;;;;;;;;9941325;28;20426;-73
2024/02/11 09:43:56;;;;;;;8.38;7.45;;;;;;;;;;9942343;28;20486;-75
2024/02/11 09:48:52;;;;;;;9.10;8.15;;;;;;;;;;9922084;28;21057;-71
2024/02/11 09:53:46;;;;;;;26.27;16.48;;;;;;;;;;9938514;28;20049;-70
2024/02/11 09:58:37;;;;;;;13.98;12.57;;;;;;;;;;9915923;28;20043;-71
2024/02/11 10:03:29;;;;;;;8.82;7.53;;;;;;;;;;9939573;28;20643;-70
2024/02/11 10:08:21;;;;;;;8.30;7.22;;;;;;;;;;9929634;28;20123;-72
2024/02/11 10:13:19;;;;;;;8.48;6.90;;;;;;;;;;9929951;28;20046;-72
2024/02/11 10:18:11;;;;;;;8.32;7.15;;;;;;;;;;9930856;28;20427;-72
2024/02/11 10:23:05;;;;;;;9.70;7.22;;;;;;;;;;9920125;28;20064;-72
2024/02/11 10:27:58;;;;;;;7.95;6.40;;;;;;;;;;9937440;28;20069;-72
2024/02/11 10:32:54;;;;;;;12.52;6.70;;;;;;;;;;9939744;28;20053;-72
2024/02/11 10:37:47;;;;;;;8.55;7.07;;;;;;;;;;9936349;28;20450;-72
2024/02/11 10:42:45;;;;;;;12.68;11.02;;;;;;;;;;9945303;28;20385;-72
2024/02/11 10:47:37;;;;;;;9.00;8.10;;;;;;;;;;9945670;28;20042;-72
2024/02/11 10:52:32;;;;;;;6.95;5.72;;;;;;;;;;9944641;28;20042;-72
2024/02/11 10:57:26;;;;;;;8.48;6.75;;;;;;;;;;9928207;28;20071;-72
2024/02/11 11:02:18;;;;;;;9.43;7.38;;;;;;;;;;9943994;28;20500;-73
2024/02/11 11:07:14;;;;;;;8.27;6.80;;;;;;;;;;9927335;28;20548;-73
2024/02/11 11:12:09;;;;;;;5.82;4.97;;;;;;;;;;9926205;28;20434;-72
2024/02/11 11:17:04;;;;;;;17.20;7.57;;;;;;;;;;9936654;28;20667;-72
2024/02/11 11:21:58;;;;;;;10.95;8.40;;;;;;;;;;9939405;28;20433;-72
2024/02/11 11:26:51;;;;;;;6.72;3.80;;;;;;;;;;9935143;28;20042;-72
2024/02/11 11:31:45;;;;;;;5.55;4.95;;;;;;;;;;9939331;28;20117;-73
2024/02/11 11:36:37;;;;;;;5.75;5.13;;;;;;;;;;9918780;28;20473;-72
2024/02/11 11:41:29;;;;;;;6.68;5.80;;;;;;;;;;9936953;28;20039;-72
2024/02/11 11:46:21;;;;;;;5.25;4.45;;;;;;;;;;9928001;28;20062;-72
2024/02/11 11:51:19;;;;;;;10.18;7.75;;;;;;;;;;9940145;28;20062;-72
2024/02/11 11:56:14;;;;;;;5.85;5.32;;;;;;;;;;9941262;28;20046;-73
2024/02/11 12:01:07;;;;;;;6.63;5.93;;;;;;;;;;9942068;28;20147;-71
2024/02/11 12:06:00;;;;;;;5.35;4.85;;;;;;;;;;9919542;28;20078;-72
2024/02/11 12:11:06;;;;;;;4.97;4.47;;;;;;;;;;9926315;28;20058;-75
2024/02/11 12:16:04;;;;;;;5.20;4.38;;;;;;;;;;9927589;28;20047;-72
2024/02/11 12:20:56;;;;;;;6.55;5.70;;;;;;;;;;9923495;28;20474;-72
2024/02/11 12:25:53;;;;;;;5.10;4.47;;;;;;;;;;9937332;28;20449;-72
2024/02/11 12:30:46;;;;;;;6.55;4.30;;;;;;;;;;9926250;28;20083;-72
2024/02/11 12:35:40;;;;;;;5.30;4.80;;;;;;;;;;9930960;28;20049;-72
2024/02/11 12:40:33;;;;;;;7.72;5.07;;;;;;;;;;9930403;28;20050;-72
2024/02/11 12:45:26;;;;;;;10.13;7.65;;;;;;;;;;9935365;28;20054;-73
2024/02/11 12:50:21;;;;;;;4.90;4.40;;;;;;;;;;9936155;28;20145;-72
2024/02/11 12:55:14;;;;;;;5.13;4.57;;;;;;;;;;9939984;28;20043;-72
2024/02/11 13:00:09;;;;;;;5.07;4.68;;;;;;;;;;9938965;28;20167;-72
2024/02/11 13:05:01;;;;;;;5.57;5.07;;;;;;;;;;9934366;28;20058;-71
2024/02/11 13:09:54;;;;;;;5.10;4.60;;;;;;;;;;9933023;28;20051;-72
2024/02/11 13:14:46;;;;;;;5.88;5.22;;;;;;;;;;9932133;28;20827;-71
2024/02/11 13:19:38;;;;;;;6.13;5.53;;;;;;;;;;9930563;28;20059;-71
2024/02/11 13:24:30;;;;;;;5.53;5.00;;;;;;;;;;9937989;28;20390;-72
2024/02/11 13:29:23;;;;;;;6.68;5.97;;;;;;;;;;9921593;28;20055;-72
2024/02/11 13:34:15;;;;;;;6.43;5.82;;;;;;;;;;9928468;28;20113;-72
2024/02/11 13:39:08;;;;;;;7.20;6.50;;;;;;;;;;9939072;28;20055;-72
2024/02/11 13:44:00;;;;;;;7.32;6.28;;;;;;;;;;9945110;28;20053;-71
2024/02/11 13:48:52;;;;;;;7.40;6.55;;;;;;;;;;9938958;28;20054;-72
2024/02/11 13:53:44;;;;;;;7.80;5.85;;;;;;;;;;9947497;28;20133;-73
2024/02/11 13:58:40;;;;;;;6.32;5.72;;;;;;;;;;9938759;28;20429;-73
2024/02/11 14:03:36;;;;;;;6.60;5.97;;;;;;;;;;9935146;28;20097;-72
2024/02/11 14:08:28;;;;;;;7.68;6.65;;;;;;;;;;9946419;28;20039;-73
2024/02/11 14:13:20;;;;;;;7.47;6.25;;;;;;;;;;9929017;28;20121;-73
2024/02/11 14:18:12;;;;;;;6.22;5.63;;;;;;;;;;9926311;28;20059;-73
2024/02/11 14:23:04;;;;;;;5.65;5.10;;;;;;;;;;9941322;28;20053;-73
2024/02/11 14:27:57;;;;;;;5.75;5.25;;;;;;;;;;9931423;28;20058;-73
2024/02/11 14:32:51;;;;;;;5.32;4.70;;;;;;;;;;9925382;28;20142;-72
2024/02/11 14:37:43;;;;;;;4.63;4.22;;;;;;;;;;9941986;28;20442;-73
2024/02/11 14:42:36;;;;;;;4.78;4.30;;;;;;;;;;9946105;28;20054;-73
2024/02/11 14:47:28;;;;;;;7.20;4.93;;;;;;;;;;9944811;28;20141;-73
2024/02/11 14:52:21;;;;;;;6.55;5.95;;;;;;;;;;9928501;28;20484;-73
2024/02/11 14:57:12;;;;;;;11.25;8.93;;;;;;;;;;9945782;28;20054;-74
2024/02/11 15:02:04;;;;;;;10.00;5.75;;;;;;;;;;9945300;28;20433;-76
2024/02/11 15:06:57;;;;;;;6.88;6.22;;;;;;;;;;9937143;28;20082;-74
2024/02/11 15:11:49;;;;;;;5.65;5.15;;;;;;;;;;9945213;28;20046;-74
2024/02/11 15:16:41;;;;;;;5.38;4.88;;;;;;;;;;9922834;28;20479;-74
2024/02/11 15:21:33;;;;;;;5.80;5.28;;;;;;;;;;9912930;28;20050;-74
2024/02/11 15:26:25;;;;;;;5.72;5.22;;;;;;;;;;9943757;28;20055;-74
2024/02/11 15:31:17;;;;;;;5.05;4.55;;;;;;;;;;9941333;28;20109;-73
2024/02/11 15:36:09;;;;;;;6.30;5.70;;;;;;;;;;9936849;28;20043;-73
2024/02/11 15:41:01;;;;;;;6.40;5.80;;;;;;;;;;9943162;28;20085;-73
2024/02/11 15:45:53;;;;;;;8.18;7.03;;;;;;;;;;9943794;28;20050;-73
2024/02/11 15:50:47;;;;;;;6.45;5.85;;;;;;;;;;9942760;28;20051;-73
2024/02/11 15:55:39;;;;;;;6.95;6.25;;;;;;;;;;9943272;28;20134;-73
2024/02/11 16:00:32;;;;;;;6.47;5.88;;;;;;;;;;9942800;28;20085;-73
2024/02/11 16:05:24;;;;;;;7.90;6.80;;;;;;;;;;9942886;28;20105;-74
2024/02/11 16:10:17;;;;;;;7.38;6.68;;;;;;;;;;9942504;28;20121;-73
2024/02/11 16:15:09;;;;;;;7.78;7.07;;;;;;;;;;9936048;28;20050;-72
2024/02/11 16:20:01;;;;;;;8.05;7.32;;;;;;;;;;9922736;28;20404;-73
2024/02/11 16:24:53;;;;;;;9.25;8.35;;;;;;;;;;9941354;28;20584;-72
2024/02/11 16:29:45;;;;;;;13.68;12.02;;;;;;;;;;9940851;28;20086;-72
2024/02/11 16:34:37;;;;;;;13.10;11.80;;;;;;;;;;9940843;28;20595;-72
2024/02/11 16:39:30;;;;;;;14.75;13.15;;;;;;;;;;9941499;28;20069;-73
2024/02/11 16:44:23;;;;;;;12.70;11.50;;;;;;;;;;9941285;28;20051;-74
2024/02/11 16:49:15;;;;;;;14.20;12.73;;;;;;;;;;9923374;28;20498;-73
2024/02/11 16:54:07;;;;;;;11.48;10.32;;;;;;;;;;9905444;28;20039;-72
2024/02/11 16:58:59;;;;;;;17.63;15.65;;;;;;;;;;9903551;28;20142;-73
2024/02/11 17:03:51;;;;;;;13.65;12.35;;;;;;;;;;9903615;28;20142;-73
2024/02/11 17:08:43;;;;;;;13.45;12.13;;;;;;;;;;9904478;28;20187;-73
2024/02/11 17:13:35;;;;;;;15.82;14.38;;;;;;;;;;9905474;28;20059;-74
2024/02/11 17:18:27;;;;;;;11.75;10.60;;;;;;;;;;9911095;28;20059;-73
2024/02/11 17:23:19;;;;;;;19.10;14.85;;;;;;;;;;9903509;28;20043;-73
2024/02/11 17:28:11;;;;;;;13.98;12.68;;;;;;;;;;9901369;28;20047;-73
2024/02/11 17:33:04;;;;;;;14.43;13.02;;;;;;;;;;9900644;28;20130;-71
2024/02/11 17:37:57;;;;;;;19.90;17.90;;;;;;;;;;9904248;28;20123;-71
2024/02/11 17:42:49;;;;;;;16.17;14.48;;;;;;;;;;9902230;28;20131;-72
2024/02/11 17:47:44;;;;;;;18.17;16.20;;;;;;;;;;9903005;28;20391;-72
2024/02/11 17:52:40;;;;;;;16.55;14.90;;;;;;;;;;9906791;28;20482;-71
2024/02/11 17:57:32;;;;;;;12.02;10.73;;;;;;;;;;9906476;28;20049;-70
2024/02/11 18:02:25;;;;;;;11.07;9.98;;;;;;;;;;9910294;28;20082;-70
2024/02/11 18:07:19;;;;;;;13.73;12.30;;;;;;;;;;9912143;28;20043;-71
2024/02/11 18:12:11;;;;;;;11.75;10.55;;;;;;;;;;9909220;28;20051;-71
2024/02/11 18:17:04;;;;;;;13.30;11.90;;;;;;;;;;9909473;28;20081;-71
2024/02/11 18:21:56;;;;;;;10.40;9.38;;;;;;;;;;9909618;28;20157;-71
2024/02/11 18:26:48;;;;;;;11.00;9.80;;;;;;;;;;9908923;28;20047;-71
2024/02/11 18:31:42;;;;;;;10.27;9.18;;;;;;;;;;9910123;28;20055;-71
2024/02/11 18:36:35;;;;;;;10.88;9.77;;;;;;;;;;9907973;28;20383;-72
2024/02/11 18:41:27;;;;;;;11.30;10.15;;;;;;;;;;9909149;28;20062;-71
2024/02/11 18:46:20;;;;;;;11.48;10.27;;;;;;;;;;9906019;28;20070;-71
2024/02/11 18:51:12;;;;;;;10.65;9.18;;;;;;;;;;9905229;28;20426;-71
2024/02/11 18:56:06;;;;;;;14.35;12.90;;;;;;;;;;9905865;28;20552;-71
2024/02/11 19:00:58;;;;;;;11.55;10.40;;;;;;;;;;9909749;28;20046;-70
2024/02/11 19:05:52;;;;;;;11.23;10.10;;;;;;;;;;9915910;28;20051;-71
2024/02/11 19:10:45;;;;;;;12.13;10.40;;;;;;;;;;9908852;28;20463;-72
2024/02/11 19:15:37;;;;;;;10.60;9.50;;;;;;;;;;9908198;28;21177;-72
2024/02/11 19:20:29;;;;;;;11.82;9.77;;;;;;;;;;9908235;28;20118;-71
2024/02/11 19:25:22;;;;;;;13.18;11.18;;;;;;;;;;9908428;28;20043;-72
2024/02/11 19:30:15;;;;;;;14.20;11.25;;;;;;;;;;9908219;28;20074;-73
2024/02/11 19:35:08;;;;;;;10.23;9.23;;;;;;;;;;9906208;28;20043;-73
2024/02/11 19:40:00;;;;;;;9.75;8.85;;;;;;;;;;9904546;28;20114;-73
2024/02/11 19:44:52;;;;;;;11.07;9.98;;;;;;;;;;9906091;28;20039;-72
2024/02/11 19:49:44;;;;;;;12.75;11.40;;;;;;;;;;9907573;28;20063;-73
2024/02/11 19:54:36;;;;;;;11.30;10.18;;;;;;;;;;9931699;28;20073;-72
2024/02/11 19:59:28;;;;;;;12.75;10.88;;;;;;;;;;9930988;28;20045;-72
2024/02/11 20:04:20;;;;;;;13.23;11.85;;;;;;;;;;9928156;28;20086;-72
2024/02/11 20:09:14;;;;;;;13.43;11.52;;;;;;;;;;9942781;28;20141;-72
2024/02/11 20:14:08;;;;;;;14.10;12.60;;;;;;;;;;9943075;28;20051;-72
2024/02/11 20:19:00;;;;;;;16.58;14.68;;;;;;;;;;9931581;28;20114;-72
2024/02/11 20:23:53;;;;;;;14.27;12.80;;;;;;;;;;9903169;28;20150;-72
2024/02/11 20:28:45;;;;;;;14.50;9.82;;;;;;;;;;9910780;28;20047;-73
2024/02/11 20:33:37;;;;;;;12.05;10.82;;;;;;;;;;9942156;28;20357;-72
2024/02/11 20:38:30;;;;;;;12.10;10.88;;;;;;;;;;9938806;28;20070;-72
2024/02/11 20:43:22;;;;;;;11.82;10.60;;;;;;;;;;9938163;28;20543;-72
2024/02/11 20:48:15;;;;;;;10.55;9.48;;;;;;;;;;9941611;28;20467;-72
2024/02/11 20:53:07;;;;;;;10.43;9.38;;;;;;;;;;9921494;28;20229;-72
2024/02/11 20:58:02;;;;;;;8.52;7.63;;;;;;;;;;9941004;28;20430;-72
2024/02/11 21:02:55;;;;;;;9.13;8.15;;;;;;;;;;9939489;28;20051;-72
2024/02/11 21:07:47;;;;;;;10.27;8.85;;;;;;;;;;9935744;28;20141;-72
2024/02/11 21:12:43;;;;;;;9.40;8.60;;;;;;;;;;9941950;28;20079;-74
2024/02/11 21:17:36;;;;;;;8.25;7.45;;;;;;;;;;9941643;28;20490;-72
2024/02/11 21:22:30;;;;;;;5.30;4.65;;;;;;;;;;9942148;28;20135;-72
2024/02/11 21:27:22;;;;;;;5.22;4.72;;;;;;;;;;9930087;28;20106;-72
2024/02/11 21:32:14;;;;;;;6.32;4.45;;;;;;;;;;9934361;28;20050;-72
2024/02/11 21:37:07;;;;;;;4.18;3.78;;;;;;;;;;9945023;28;20567;-72
2024/02/11 21:42:00;;;;;;;5.63;4.53;;;;;;;;;;9948314;28;20065;-72
2024/02/11 21:46:53;;;;;;;3.97;3.60;;;;;;;;;;9930862;28;20047;-73
2024/02/11 21:51:45;;;;;;;3.92;3.28;;;;;;;;;;9930645;28;20158;-73
2024/02/11 21:56:37;;;;;;;3.17;2.80;;;;;;;;;;9909834;28;20055;-72
2024/02/11 22:01:30;;;;;;;4.03;3.63;;;;;;;;;;9941329;28;20066;-72
2024/02/11 22:06:23;;;;;;;3.05;2.75;;;;;;;;;;9948228;28;20054;-72
2024/02/11 22:11:16;;;;;;;2.90;2.70;;;;;;;;;;9948282;28;20130;-73
2024/02/11 22:16:09;;;;;;;2.70;2.50;;;;;;;;;;9944700;28;20047;-72
2024/02/11 22:21:01;;;;;;;3.33;2.80;;;;;;;;;;9909308;29;20162;-73
2024/02/11 22:25:53;;;;;;;3.53;2.42;;;;;;;;;;9916635;28;20058;-72
2024/02/11 22:30:45;;;;;;;3.90;3.30;;;;;;;;;;9947686;28;20130;-72
2024/02/11 22:35:37;;;;;;;3.42;3.13;;;;;;;;;;9918370;28;20059;-72
2024/02/11 22:40:30;;;;;;;3.03;2.72;;;;;;;;;;9951398;28;20038;-72
2024/02/11 22:45:24;;;;;;;2.80;2.60;;;;;;;;;;9954300;28;20554;-72
2024/02/11 22:50:19;;;;;;;2.35;2.17;;;;;;;;;;9945105;28;20430;-72
2024/02/11 22:55:11;;;;;;;3.35;2.58;;;;;;;;;;9946715;28;20101;-72
2024/02/11 23:05:16;;;;;;;1.67;1.58;;;;;;;;;;9945651;28;20051;-72
2024/02/11 23:10:09;;;;;;;1.70;1.60;;;;;;;;;;9945989;28;20055;-72
2024/02/11 23:15:05;;;;;;;2.30;2.10;;;;;;;;;;9946075;28;20456;-72
2024/02/11 23:19:57;;;;;;;2.22;2.05;;;;;;;;;;9944815;28;20434;-72
2024/02/11 23:24:49;;;;;;;1.80;1.70;;;;;;;;;;9945220;28;20046;-72
2024/02/11 23:29:43;;;;;;;1.90;1.80;;;;;;;;;;9944816;28;20074;-72
2024/02/11 23:34:35;;;;;;;1.52;1.42;;;;;;;;;;9944831;28;20483;-72
2024/02/11 23:39:27;;;;;;;1.58;1.48;;;;;;;;;;9944638;28;20050;-72
2024/02/11 23:44:19;;;;;;;1.52;1.42;;;;;;;;;;9944683;28;20145;-72
2024/02/11 23:49:12;;;;;;;2.05;1.60;;;;;;;;;;9943683;28;20047;-72
2024/02/11 23:54:05;;;;;;;1.48;1.38;;;;;;;;;;9944312;28;20054;-72
2024/02/11 23:58:56;;;;;;;1.60;1.50;;;;;;;;;;9943143;28;20055;-72
